Time;durP1;ratioP1;P1;durP2;ratioP2;P2;SDS_P1;SDS_P2;PMS_P1;PMS_P2;Temp;Humidity;BMP_temperature;BMP_pressure;BME280_temperature;BME280_humidity;BME280_pressure;Samples;Min_cycle;Max_cycle;Signal;HPM_P1;HPM_P2
2022/05/31 00:04:58;;;;;;;1.77;1.10;;;;;;;17.49;42.54;96092.72;10450370;28;20033;-23
2022/05/31 00:09:58;;;;;;;1.52;0.82;;;;;;;17.43;43.06;96095.28;10455089;28;20471;-23
2022/05/31 00:15:00;;;;;;;1.30;0.80;;;;;;;17.47;42.79;96091.84;10488862;28;20032;-22
2022/05/31 00:20:00;;;;;;;3.22;0.93;;;;;;;17.40;42.89;96087.69;10474400;28;20104;-23
2022/05/31 00:25:01;;;;;;;3.55;1.23;;;;;;;17.43;43.00;96088.53;10450476;28;20028;-23
2022/05/31 00:30:03;;;;;;;1.90;1.08;;;;;;;17.34;42.95;96085.16;10449697;28;20041;-22
2022/05/31 00:35:08;;;;;;;1.10;0.90;;;;;;;17.37;42.93;96078.44;10449284;28;20041;-23
2022/05/31 00:40:10;;;;;;;1.13;0.85;;;;;;;17.38;42.78;96089.38;10450015;28;20029;-23
2022/05/31 00:45:11;;;;;;;3.28;1.10;;;;;;;17.18;43.24;96098.75;10447792;28;20573;-23
2022/05/31 00:50:34;;;;;;;3.30;0.97;;;;;;;17.18;43.21;96101.28;10448806;28;20036;-23
2022/05/31 00:55:57;;;;;;;1.38;0.88;;;;;;;17.16;43.30;96110.56;10457831;28;20191;-23
2022/05/31 01:01:08;;;;;;;1.33;0.85;;;;;;;17.26;43.34;96119.78;10463576;28;20475;-23
2022/05/31 01:06:12;;;;;;;2.33;0.95;;;;;;;17.37;43.02;96125.66;10447154;28;20037;-23
2022/05/31 01:11:20;;;;;;;2.40;0.85;;;;;;;17.38;42.69;96129.88;10450199;28;20049;-23
2022/05/31 01:17:04;;;;;;;1.60;0.85;;;;;;;17.25;43.24;96124.00;10448458;28;20127;-23
2022/05/31 01:22:29;;;;;;;2.63;1.73;;;;;;;17.23;43.52;96140.03;10448789;28;20033;-24
2022/05/31 01:27:42;;;;;;;1.33;1.10;;;;;;;17.17;43.62;96125.72;10452917;28;20044;-23
2022/05/31 01:32:58;;;;;;;2.15;0.93;;;;;;;17.16;43.61;96139.22;10455672;28;20048;-22
2022/05/31 01:38:22;;;;;;;2.88;1.00;;;;;;;17.21;43.49;96151.84;10456324;28;20036;-23
2022/05/31 01:43:23;;;;;;;3.03;1.02;;;;;;;17.16;43.21;96148.50;10455663;28;20077;-23
2022/05/31 01:48:27;;;;;;;2.13;1.05;;;;;;;17.25;43.24;96145.94;10455674;28;20116;-23
2022/05/31 01:53:28;;;;;;;2.42;1.10;;;;;;;17.14;43.38;96155.25;10494526;28;20677;-24
2022/05/31 01:58:33;;;;;;;0.80;0.70;;;;;;;17.07;43.51;96148.53;10460145;28;20407;-23
2022/05/31 02:03:34;;;;;;;1.23;0.75;;;;;;;17.07;43.57;96148.53;10453797;28;20029;-23
2022/05/31 02:08:34;;;;;;;1.05;0.80;;;;;;;17.26;43.40;96145.09;10453789;28;20032;-23
2022/05/31 02:13:36;;;;;;;1.17;0.90;;;;;;;17.37;43.13;96154.34;10462298;28;20029;-23
2022/05/31 02:24:24;;;;;;;1.15;0.82;;;;;;;17.38;43.18;96132.38;10452366;28;20040;-23
2022/05/31 02:29:28;;;;;;;1.17;0.88;;;;;;;17.32;43.16;96134.94;10493624;28;20043;-23
2022/05/31 02:34:32;;;;;;;1.38;0.80;;;;;;;17.34;43.01;96123.94;10472987;28;20435;-23
2022/05/31 02:39:32;;;;;;;1.08;0.70;;;;;;;17.34;43.14;96128.19;10452134;28;20029;-23
2022/05/31 02:44:33;;;;;;;1.73;0.80;;;;;;;17.27;43.43;96117.25;10492916;28;20415;-22
2022/05/31 02:49:39;;;;;;;3.50;0.80;;;;;;;17.35;43.34;96125.66;10488577;28;20280;-22
2022/05/31 02:54:39;;;;;;;1.45;0.98;;;;;;;17.30;43.28;96121.44;10451111;28;20056;-23
2022/05/31 02:59:55;;;;;;;3.60;0.90;;;;;;;17.26;43.25;96129.91;10454263;28;20037;-24
2022/05/31 03:05:28;;;;;;;1.45;0.70;;;;;;;17.35;43.02;96117.19;10429555;28;20136;-23
2022/05/31 03:10:47;;;;;;;1.67;1.02;;;;;;;17.34;43.14;96128.19;10450646;28;20037;-23
2022/05/31 03:15:48;;;;;;;1.48;0.95;;;;;;;17.41;43.17;96128.16;10451971;28;20033;-25
2022/05/31 03:20:51;;;;;;;1.13;0.85;;;;;;;17.42;43.06;96129.00;10451953;28;20029;-23
2022/05/31 03:25:53;;;;;;;2.08;0.90;;;;;;;17.39;43.24;96131.53;10449766;28;20041;-23
2022/05/31 03:30:54;;;;;;;2.15;0.95;;;;;;;17.24;43.21;96131.59;10456180;28;20036;-23
2022/05/31 03:35:55;;;;;;;2.70;1.00;;;;;;;17.22;43.36;96130.75;10449628;28;20029;-23
2022/05/31 03:41:01;;;;;;;5.68;1.40;;;;;;;17.29;43.26;96140.00;10462429;28;20032;-23
2022/05/31 03:46:25;;;;;;;1.80;0.88;;;;;;;17.10;43.41;96133.34;10490093;28;20483;-22
2022/05/31 03:51:32;;;;;;;2.15;1.35;;;;;;;17.06;43.78;96136.75;10458036;28;20040;-23
2022/05/31 03:56:39;;;;;;;2.55;1.10;;;;;;;17.13;43.79;96139.22;10448733;28;20032;-23
2022/05/31 04:01:39;;;;;;;2.40;1.17;;;;;;;17.27;43.97;96154.34;10449192;28;20032;-23
2022/05/31 04:06:40;;;;;;;2.28;1.08;;;;;;;17.19;43.63;96148.47;10448858;28;20029;-25
2022/05/31 04:11:41;;;;;;;6.32;1.85;;;;;;;17.25;48.10;96153.53;10466876;28;20035;-23
2022/05/31 04:16:49;;;;;;;3.88;1.40;;;;;;;17.16;47.43;96161.16;10484164;28;20033;-23
2022/05/31 04:21:49;;;;;;;2.70;1.38;;;;;;;17.12;46.70;96156.94;10448620;28;20083;-24
2022/05/31 04:26:50;;;;;;;1.52;1.13;;;;;;;17.28;44.38;96140.84;10459304;28;20043;-23
2022/05/31 04:32:10;;;;;;;1.42;1.23;;;;;;;17.28;44.19;96123.13;10449287;28;20060;-23
2022/05/31 04:37:16;;;;;;;2.15;1.25;;;;;;;17.37;43.86;96145.91;10471755;28;20037;-24
2022/05/31 04:42:41;;;;;;;2.03;1.08;;;;;;;17.30;44.05;96141.66;10459516;28;20040;-24
2022/05/31 04:47:43;;;;;;;1.85;1.00;;;;;;;17.35;43.95;96147.56;10447796;28;20060;-24
2022/05/31 04:52:44;;;;;;;2.60;1.08;;;;;;;17.29;44.48;96145.06;10447957;28;20518;-24
2022/05/31 04:57:44;;;;;;;4.50;1.60;;;;;;;17.17;44.61;96151.00;10447654;28;20087;-23
2022/05/31 05:02:44;;;;;;;2.13;1.33;;;;;;;17.23;44.40;96147.63;10453014;28;20120;-22
2022/05/31 05:07:45;;;;;;;2.10;1.00;;;;;;;17.31;44.12;96161.09;10455104;28;20087;-23
2022/05/31 05:12:45;;;;;;;1.75;1.20;;;;;;;17.32;44.39;96148.41;10455048;28;20291;-22
2022/05/31 05:18:12;;;;;;;1.55;1.17;;;;;;;17.37;44.50;96158.53;10454729;28;20452;-23
2022/05/31 05:23:14;;;;;;;1.20;0.80;;;;;;;17.37;44.25;96153.47;10454999;28;20083;-23
2022/05/31 05:34:05;;;;;;;3.47;1.10;;;;;;;17.38;44.65;96150.09;10449448;28;20583;-23
2022/05/31 05:39:18;;;;;;;1.77;1.20;;;;;;;17.39;44.65;96174.56;10454594;28;20040;-24
2022/05/31 05:44:42;;;;;;;2.67;1.10;;;;;;;17.34;44.59;96169.47;10454904;28;20049;-23
2022/05/31 05:49:46;;;;;;;1.50;1.20;;;;;;;17.38;44.90;96165.28;10454208;28;20041;-23
2022/05/31 05:55:05;;;;;;;1.92;1.55;;;;;;;17.38;44.71;96157.69;10454480;28;20041;-24
2022/05/31 06:00:24;;;;;;;1.40;0.90;;;;;;;17.39;44.91;96169.50;10454820;28;20033;-24
2022/05/31 06:05:31;;;;;;;2.70;1.40;;;;;;;17.37;44.85;96163.59;10454658;28;20041;-23
2022/05/31 06:10:54;;;;;;;2.10;1.20;;;;;;;17.30;45.20;96177.09;10453873;28;20653;-23
2022/05/31 06:15:56;;;;;;;2.05;0.98;;;;;;;17.28;45.13;96183.84;10452527;28;20419;-23
2022/05/31 06:21:01;;;;;;;1.73;1.10;;;;;;;17.30;44.98;96177.09;10452664;28;20578;-23
2022/05/31 06:26:02;;;;;;;1.30;0.90;;;;;;;17.30;44.89;96183.00;10469551;28;20040;-23
2022/05/31 06:31:14;;;;;;;2.42;0.90;;;;;;;17.34;44.73;96184.66;10452695;28;20111;-24
2022/05/31 06:36:14;;;;;;;1.52;1.02;;;;;;;17.38;44.86;96185.53;10451562;28;20567;-22
2022/05/31 06:41:15;;;;;;;3.20;1.10;;;;;;;17.33;44.76;96172.03;10451625;28;20454;-23
2022/05/31 06:46:47;;;;;;;2.13;1.20;;;;;;;17.38;44.70;96185.53;10452488;28;20049;-23
2022/05/31 06:57:52;;;;;;;1.42;0.90;;;;;;;17.38;44.86;96180.47;10452114;28;20387;-23
2022/05/31 07:02:59;;;;;;;1.92;0.98;;;;;;;17.38;45.29;96180.47;10457885;28;20512;-24
2022/05/31 07:08:07;;;;;;;3.72;1.10;;;;;;;17.38;44.77;96180.47;10476686;28;20524;-23
2022/05/31 07:13:26;;;;;;;1.35;0.80;;;;;;;17.37;44.96;96173.72;10459626;28;20045;-23
2022/05/31 07:19:05;;;;;;;2.33;0.98;;;;;;;17.35;45.07;96170.34;10380372;28;20120;-23
2022/05/31 07:24:13;;;;;;;1.00;0.80;;;;;;;17.36;45.46;96172.06;10432892;28;20411;-23
2022/05/31 07:29:31;;;;;;;2.05;1.00;;;;;;;17.33;45.32;96182.16;10450438;28;20033;-23
2022/05/31 07:34:32;;;;;;;3.28;1.10;;;;;;;17.38;45.37;96180.47;10462555;28;20039;-23
2022/05/31 07:39:33;;;;;;;1.50;0.90;;;;;;;17.33;45.42;96159.38;10488675;28;20060;-23
2022/05/31 07:44:34;;;;;;;2.70;1.40;;;;;;;17.46;44.75;96176.22;10451094;28;20697;-23
2022/05/31 07:49:35;;;;;;;1.95;0.85;;;;;;;17.43;45.02;96174.56;10449644;28;20033;-24
2022/05/31 07:55:01;;;;;;;2.20;1.20;;;;;;;17.39;45.40;96182.16;10452924;28;20457;-23
2022/05/31 08:00:37;;;;;;;1.63;0.70;;;;;;;17.50;45.24;96180.44;10491617;28;20033;-24
2022/05/31 08:05:39;;;;;;;1.48;1.00;;;;;;;17.41;45.43;96185.53;10461895;28;20029;-24
2022/05/31 08:10:40;;;;;;;2.20;1.10;;;;;;;17.38;45.33;96185.53;10460236;28;20037;-23
2022/05/31 08:15:41;;;;;;;2.75;1.10;;;;;;;17.30;45.30;96172.88;10491438;28;20146;-24
2022/05/31 08:20:41;;;;;;;1.45;0.90;;;;;;;17.43;45.18;96193.94;10461472;28;20143;-23
2022/05/31 08:25:42;;;;;;;1.07;0.70;;;;;;;17.42;45.29;96194.81;10449872;28;20037;-23
2022/05/31 08:30:42;;;;;;;1.40;0.80;;;;;;;17.45;45.41;96192.25;10450117;28;20391;-23
2022/05/31 08:35:42;;;;;;;1.27;0.70;;;;;;;17.65;47.59;96195.53;10478366;28;20506;-23
2022/05/31 08:40:56;;;;;;;1.40;1.00;;;;;;;17.56;45.60;96185.47;10488849;28;20040;-23
2022/05/31 08:46:02;;;;;;;1.60;0.93;;;;;;;17.55;45.35;96188.81;10457435;28;20418;-23
2022/05/31 09:01:53;;;;;;;2.70;0.90;;;;;;;17.61;45.30;96168.56;10456718;28;20119;-23
2022/05/31 09:07:08;;;;;;;3.97;1.05;;;;;;;17.53;45.66;96160.16;10457001;28;20119;-24
2022/05/31 09:12:16;;;;;;;1.20;1.10;;;;;;;17.52;45.69;96163.53;10456294;28;20755;-23
2022/05/31 09:17:38;;;;;;;1.23;0.82;;;;;;;17.56;45.66;96162.69;10456609;28;20174;-24
2022/05/31 09:22:43;;;;;;;1.45;0.80;;;;;;;17.68;46.03;96155.00;10456846;28;20218;-23
2022/05/31 09:27:49;;;;;;;1.55;0.90;;;;;;;17.65;45.78;96147.44;10455691;28;20064;-23
2022/05/31 09:33:18;;;;;;;1.38;0.85;;;;;;;17.68;45.83;96144.88;10455598;28;20132;-23
2022/05/31 09:38:18;;;;;;;1.50;0.90;;;;;;;17.59;45.90;96150.00;10456065;28;20041;-23
2022/05/31 09:43:35;;;;;;;2.45;0.85;;;;;;;17.64;46.14;96144.06;10487944;28;20032;-23
2022/05/31 09:48:49;;;;;;;2.77;0.87;;;;;;;17.72;47.01;96149.06;10496413;28;20124;-23
2022/05/31 09:59:50;;;;;;;0.82;0.70;;;;;;;17.89;47.41;96142.19;10427085;28;20052;-23
2022/05/31 10:05:18;;;;;;;2.35;0.90;;;;;;;17.84;46.15;96146.47;10455234;28;20041;-23
2022/05/31 10:10:32;;;;;;;1.60;0.90;;;;;;;17.74;46.20;96152.47;10461408;28;20040;-22
2022/05/31 10:15:45;;;;;;;2.60;0.90;;;;;;;17.79;47.63;96151.56;10495862;28;20040;-24
2022/05/31 10:21:01;;;;;;;2.65;1.17;;;;;;;17.77;46.37;96152.44;10467790;28;20029;-23
2022/05/31 10:26:03;;;;;;;2.58;1.55;;;;;;;17.68;46.50;96144.88;10466143;28;20036;-23
2022/05/31 10:31:37;;;;;;;2.42;1.33;;;;;;;17.65;46.37;96149.97;10495683;28;20036;-22
2022/05/31 10:36:50;;;;;;;5.55;2.80;;;;;;;17.69;46.46;96161.75;10456691;28;20044;-22
2022/05/31 10:41:54;;;;;;;3.13;1.85;;;;;;;17.54;46.48;96156.78;10469621;28;20035;-23
2022/05/31 10:47:01;;;;;;;2.22;1.50;;;;;;;17.74;46.75;96162.59;10493861;28;20549;-24
2022/05/31 10:52:35;;;;;;;3.22;1.30;;;;;;;17.56;47.26;96166.03;10464692;28;20168;-23
2022/05/31 10:58:11;;;;;;;5.55;1.42;;;;;;;17.50;46.56;96163.53;10451687;28;20033;-24
2022/05/31 11:03:45;;;;;;;3.05;1.10;;;;;;;17.59;46.55;96173.59;10450675;28;20098;-23
2022/05/31 11:14:28;;;;;;;1.75;1.30;;;;;;;17.65;46.80;96170.22;10449355;28;20170;-23
2022/05/31 11:19:40;;;;;;;4.15;1.00;;;;;;;17.59;46.31;96186.25;10451508;28;20127;-22
2022/05/31 11:24:54;;;;;;;2.38;1.00;;;;;;;17.59;46.72;96175.31;10451085;28;20095;-24
2022/05/31 11:30:07;;;;;;;2.05;1.02;;;;;;;17.45;45.94;96177.06;10452400;28;20044;-23
2022/05/31 11:36:00;;;;;;;2.58;0.80;;;;;;;17.54;45.89;96171.97;10448191;28;20084;-23
2022/05/31 11:41:23;;;;;;;2.08;1.05;;;;;;;17.51;46.03;96174.50;10437602;28;20466;-23
2022/05/31 11:46:40;;;;;;;1.95;0.77;;;;;;;17.49;45.83;96178.75;10450701;28;20488;-24
2022/05/31 11:51:46;;;;;;;;;;;;;;;17.40;46.15;96179.63;10451016;28;20414;-23
2022/05/31 11:57:11;;;;;;;3.72;1.48;;;;;;;17.39;45.84;96179.63;10450889;28;19919;-24
2022/05/31 12:02:29;;;;;;;1.10;0.90;;;;;;;17.43;45.90;96188.88;10450958;28;20067;-23
2022/05/31 12:07:47;;;;;;;4.30;1.10;;;;;;;17.57;45.73;96182.91;10450897;28;20041;-23
2022/05/31 12:12:50;;;;;;;3.75;1.02;;;;;;;17.58;45.71;96168.56;10476629;28;20068;-23
2022/05/31 12:18:24;;;;;;;2.65;1.10;;;;;;;17.55;45.69;96169.44;10491810;28;20255;-22
2022/05/31 12:24:09;;;;;;;5.40;0.93;;;;;;;17.51;46.21;96177.03;10456589;28;20037;-24
2022/05/31 12:29:45;;;;;;;1.90;1.00;;;;;;;17.60;46.16;96169.41;10446510;28;20055;-23
2022/05/31 12:34:45;;;;;;;3.78;0.63;;;;;;;17.47;46.35;96175.34;10453612;28;20123;-23
2022/05/31 12:39:48;;;;;;;3.13;1.10;;;;;;;17.50;46.02;96165.25;10487684;28;20097;-23
2022/05/31 12:44:49;;;;;;;2.85;1.02;;;;;;;17.59;46.36;96165.19;10449516;28;20033;-23
2022/05/31 12:50:06;;;;;;;2.15;1.00;;;;;;;17.53;46.38;96170.28;10449033;28;20090;-23
2022/05/31 12:55:33;;;;;;;1.20;0.98;;;;;;;17.54;46.40;96170.28;10454254;28;20244;-22
2022/05/31 13:00:33;;;;;;;1.17;0.70;;;;;;;17.58;46.53;96166.03;10490341;28;20387;-23
2022/05/31 13:05:39;;;;;;;2.65;1.38;;;;;;;17.53;46.84;96163.53;10479548;28;20067;-23
2022/05/31 13:21:19;;;;;;;1.67;1.05;;;;;;;17.71;46.68;96160.03;10450602;28;20048;-24
2022/05/31 13:26:24;;;;;;;1.13;0.93;;;;;;;17.57;46.98;96154.25;10455827;28;20140;-24
2022/05/31 13:31:28;;;;;;;0.98;0.70;;;;;;;17.55;47.14;96148.31;10457046;28;20033;-24
2022/05/31 13:36:31;;;;;;;2.47;1.20;;;;;;;17.57;47.07;96141.59;10455218;28;20055;-23
2022/05/31 13:41:32;;;;;;;4.18;1.50;;;;;;;17.54;47.24;96144.13;10455733;28;20087;-23
2022/05/31 13:46:47;;;;;;;1.52;0.90;;;;;;;17.47;47.46;96134.88;10455826;28;20039;-23
2022/05/31 13:51:54;;;;;;;2.22;0.80;;;;;;;17.46;47.32;96135.72;10455454;28;20439;-23
2022/05/31 13:57:02;;;;;;;1.25;0.98;;;;;;;17.55;46.85;96134.00;10454979;28;20041;-23
2022/05/31 14:02:04;;;;;;;3.28;1.10;;;;;;;17.53;47.04;96132.31;10455922;28;20090;-23
2022/05/31 14:07:13;;;;;;;4.72;1.13;;;;;;;17.55;47.02;96130.59;10454934;28;20078;-23
2022/05/31 14:12:19;;;;;;;1.88;1.10;;;;;;;17.51;46.97;96113.78;10477454;28;20028;-23
2022/05/31 14:17:41;;;;;;;3.50;1.00;;;;;;;17.51;46.98;96134.84;10495940;28;20070;-24
2022/05/31 14:22:42;;;;;;;3.10;1.10;;;;;;;17.54;46.71;96139.06;10460915;28;20029;-22
2022/05/31 14:27:42;;;;;;;3.70;1.10;;;;;;;17.52;46.54;96134.03;10454008;28;20029;-23
2022/05/31 14:32:48;;;;;;;1.60;1.00;;;;;;;17.54;46.81;96123.88;10452888;28;20132;-21
2022/05/31 14:37:51;;;;;;;3.10;0.90;;;;;;;17.50;47.17;96138.22;10453765;28;20453;-24
2022/05/31 14:43:19;;;;;;;3.25;1.17;;;;;;;17.55;46.82;96138.19;10453561;28;20058;-23
2022/05/31 14:48:40;;;;;;;4.32;0.88;;;;;;;17.49;47.06;96144.16;10453207;28;20452;-24
2022/05/31 14:53:44;;;;;;;6.63;0.80;;;;;;;17.55;46.52;96143.25;10453833;28;20033;-23
2022/05/31 14:58:45;;;;;;;1.95;1.15;;;;;;;17.50;46.75;96140.75;10488556;28;20035;-23
2022/05/31 15:03:55;;;;;;;2.33;0.93;;;;;;;17.49;46.79;96153.44;10489193;28;20584;-23
2022/05/31 15:09:03;;;;;;;3.17;0.93;;;;;;;17.56;46.42;96150.03;10452849;28;20037;-24
2022/05/31 15:19:27;;;;;;;2.88;0.93;;;;;;;17.62;46.56;96165.16;10451559;28;20495;-24
2022/05/31 15:24:41;;;;;;;2.35;1.00;;;;;;;17.66;46.68;96166.84;10450498;28;20415;-23
2022/05/31 15:29:41;;;;;;;2.28;0.90;;;;;;;17.58;46.79;96169.41;10453628;28;20124;-24
2022/05/31 15:34:42;;;;;;;1.85;0.88;;;;;;;17.51;47.21;96166.91;10450471;28;20041;-24
2022/05/31 15:39:45;;;;;;;2.67;1.03;;;;;;;17.50;47.30;96165.25;10452817;28;20063;-23
2022/05/31 15:44:47;;;;;;;3.90;1.42;;;;;;;17.56;46.85;96157.63;10491433;28;20271;-24
2022/05/31 15:49:47;;;;;;;1.52;0.68;;;;;;;17.56;47.03;96165.22;10475745;28;20442;-23
2022/05/31 15:54:57;;;;;;;3.23;0.90;;;;;;;17.61;46.96;96179.53;10450306;28;20040;-22
2022/05/31 15:59:57;;;;;;;1.20;1.02;;;;;;;17.56;47.01;96181.22;10450322;28;20812;-24
2022/05/31 16:04:57;;;;;;;2.00;1.27;;;;;;;17.60;47.00;96177.00;10448756;28;20045;-23
2022/05/31 16:09:58;;;;;;;3.72;1.00;;;;;;;17.60;47.19;96182.06;10459551;28;20032;-23
2022/05/31 16:14:58;;;;;;;2.58;1.10;;;;;;;17.64;47.12;96184.56;10461724;28;20421;-24
2022/05/31 16:19:59;;;;;;;2.38;0.90;;;;;;;17.65;47.07;96180.34;10460832;28;20059;-23
2022/05/31 16:25:01;;;;;;;7.88;2.15;;;;;;;17.68;47.77;96186.22;10485900;28;20032;-23
2022/05/31 16:30:01;;;;;;;3.95;1.17;;;;;;;17.59;47.53;96185.44;10450157;28;20040;-24
2022/05/31 16:35:02;;;;;;;2.22;1.02;;;;;;;17.61;47.32;96188.81;10466143;28;20044;-23
2022/05/31 16:45:21;;;;;;;2.88;1.00;;;;;;;17.53;47.48;96193.06;10467904;28;20044;-23
2022/05/31 16:50:22;;;;;;;1.42;1.25;;;;;;;17.59;47.31;96196.38;10485301;28;20059;-23
2022/05/31 16:55:22;;;;;;;3.08;1.10;;;;;;;17.60;47.06;96197.25;10445403;28;20032;-24
2022/05/31 17:00:23;;;;;;;4.85;0.77;;;;;;;17.60;46.87;96214.97;10464931;28;20429;-25
2022/05/31 17:05:24;;;;;;;4.45;1.25;;;;;;;17.66;47.53;96217.47;10470902;28;20419;-22
2022/05/31 17:15:44;;;;;;;6.13;0.98;;;;;;;17.75;46.45;96227.56;10456448;28;20041;-24
2022/05/31 17:20:48;;;;;;;1.35;1.00;;;;;;;17.74;46.46;96213.22;10456667;28;20124;-23
2022/05/31 17:25:51;;;;;;;2.95;0.90;;;;;;;17.72;46.07;96218.28;10456220;28;20037;-24
2022/05/31 17:30:52;;;;;;;1.98;1.00;;;;;;;17.86;46.86;96218.19;10466371;28;20072;-23
2022/05/31 17:36:00;;;;;;;2.03;0.93;;;;;;;17.85;46.67;96224.13;10469585;28;20123;-23
2022/05/31 17:41:10;;;;;;;1.45;0.95;;;;;;;17.83;46.16;96225.81;10468008;28;20495;-24
2022/05/31 17:46:12;;;;;;;1.92;0.90;;;;;;;17.69;46.37;96238.56;10450962;28;20449;-23
2022/05/31 17:51:12;;;;;;;2.50;0.90;;;;;;;17.75;46.48;96242.75;10463882;28;20037;-24
2022/05/31 17:56:14;;;;;;;1.50;0.80;;;;;;;17.75;46.40;96243.56;10476562;28;20036;-23
2022/05/31 18:01:15;;;;;;;4.00;0.70;;;;;;;17.75;46.52;96257.94;10486571;28;20029;-24
2022/05/31 18:06:21;;;;;;;1.48;0.93;;;;;;;17.62;46.54;96256.28;10475115;28;20511;-23
2022/05/31 18:11:22;;;;;;;2.47;0.80;;;;;;;17.62;46.43;96259.69;10450196;28;20069;-25
2022/05/31 18:16:23;;;;;;;2.22;0.93;;;;;;;17.65;46.22;96266.41;10452405;28;20029;-24
2022/05/31 18:21:26;;;;;;;4.22;0.80;;;;;;;17.63;46.18;96268.09;10449223;28;20411;-23
2022/05/31 18:26:27;;;;;;;2.33;0.82;;;;;;;17.63;46.41;96275.69;10450211;28;20044;-24
2022/05/31 18:31:27;;;;;;;1.48;0.85;;;;;;;17.68;46.26;96281.59;10487119;28;20041;-24
2022/05/31 18:42:00;;;;;;;3.17;1.30;;;;;;;17.77;47.92;96286.63;10440028;28;20072;-23
2022/05/31 18:47:00;;;;;;;13.07;1.67;;;;;;;17.66;49.95;96273.16;10448772;28;20048;-24
2022/05/31 18:52:01;;;;;;;4.25;1.05;;;;;;;17.75;48.81;96279.00;10448466;28;20040;-24
2022/05/31 18:57:01;;;;;;;3.57;1.33;;;;;;;17.84;48.02;96294.16;10448039;28;20568;-23
2022/05/31 19:02:36;;;;;;;4.53;1.27;;;;;;;17.89;47.71;96291.59;10448766;28;20033;-24
2022/05/31 19:07:29;;;;;;;3.38;1.05;;;;;;;17.84;47.43;96309.34;10446062;28;20084;-22
2022/05/31 19:12:31;;;;;;;3.30;0.87;;;;;;;17.81;47.19;96333.84;10470296;28;20036;-23
2022/05/31 19:17:32;;;;;;;4.93;1.00;;;;;;;17.75;46.91;96359.22;10487134;28;20368;-23
2022/05/31 19:22:35;;;;;;;2.33;1.05;;;;;;;17.73;47.57;96402.25;10488452;28;20105;-23
2022/05/31 19:27:35;;;;;;;2.42;1.15;;;;;;;17.72;48.30;96420.81;10472163;28;20044;-24
2022/05/31 19:32:37;;;;;;;3.13;1.13;;;;;;;17.70;49.51;96422.50;10446573;28;20372;-23
2022/05/31 19:37:38;;;;;;;3.67;0.93;;;;;;;17.72;49.48;96430.09;10475476;28;20131;-24
2022/05/31 19:42:40;;;;;;;5.80;1.27;;;;;;;17.74;49.37;96419.13;10476293;28;20562;-23
2022/05/31 19:47:41;;;;;;;1.67;1.15;;;;;;;17.80;49.14;96423.31;10488267;28;20102;-23
2022/05/31 19:52:42;;;;;;;4.70;1.35;;;;;;;17.83;49.57;96425.88;10459540;28;20029;-23
2022/05/31 19:57:45;;;;;;;2.47;1.20;;;;;;;17.83;49.89;96433.47;10445373;28;20033;-24
2022/05/31 20:02:46;;;;;;;1.23;1.08;;;;;;;17.82;49.81;96431.78;10450785;28;20133;-23
2022/05/31 20:07:46;;;;;;;2.30;0.80;;;;;;;17.85;49.74;96434.28;10487633;28;20050;-23
2022/05/31 20:12:49;;;;;;;2.77;1.10;;;;;;;17.85;49.84;96432.63;10457196;28;20098;-23
2022/05/31 20:23:11;;;;;;;1.73;1.13;;;;;;;17.87;49.84;96450.31;10470927;28;20074;-23
2022/05/31 20:28:14;;;;;;;4.05;1.20;;;;;;;17.78;50.14;96430.09;10476850;28;20027;-22
2022/05/31 20:33:16;;;;;;;1.20;1.10;;;;;;;17.82;50.52;96450.34;10461444;28;20039;-25
2022/05/31 20:38:24;;;;;;;2.55;1.05;;;;;;;17.83;50.47;96441.06;10464954;28;20051;-23
2022/05/31 20:43:26;;;;;;;1.95;1.00;;;;;;;17.71;50.83;96423.34;10445925;28;20120;-23
2022/05/31 20:48:26;;;;;;;1.35;0.93;;;;;;;17.81;50.71;96445.25;10473460;28;20121;-25
2022/05/31 20:53:31;;;;;;;1.70;1.15;;;;;;;17.83;50.80;96449.47;10451559;28;20134;-24
2022/05/31 20:58:32;;;;;;;1.75;0.90;;;;;;;17.82;50.91;96452.88;10449395;28;20033;-22
2022/05/31 21:03:33;;;;;;;5.72;1.27;;;;;;;17.76;51.12;96454.56;10448728;28;20064;-24
2022/05/31 21:08:33;;;;;;;1.98;0.93;;;;;;;17.76;51.23;96457.09;10448824;28;20060;-24
2022/05/31 21:13:33;;;;;;;2.47;1.20;;;;;;;17.73;51.19;96455.41;10448440;28;20033;-24
2022/05/31 21:18:34;;;;;;;2.20;1.00;;;;;;;17.76;51.18;96463.00;10447679;28;20041;-23
2022/05/31 21:23:36;;;;;;;1.70;0.97;;;;;;;17.77;51.41;96468.91;10447150;28;20029;-24
2022/05/31 21:28:38;;;;;;;1.50;1.05;;;;;;;17.79;51.08;96462.16;10448187;28;20298;-24
2022/05/31 21:33:39;;;;;;;0.98;0.85;;;;;;;17.74;50.93;96456.28;10448916;28;20033;-24
2022/05/31 21:41:07;;;;;;;1.08;0.90;;;;;;;17.73;51.00;96467.25;10448629;28;20041;-23
2022/05/31 21:44:00;;;;;;;1.60;1.20;;;;;;;17.72;51.48;96473.97;10452330;28;20411;-24
2022/05/31 21:49:00;;;;;;;1.55;1.08;;;;;;;17.73;51.29;96469.78;10455927;28;21698;-23
2022/05/31 21:54:02;;;;;;;3.03;1.20;;;;;;;17.70;51.21;96468.09;10477561;28;20106;-23
2022/05/31 21:59:17;;;;;;;1.77;0.95;;;;;;;17.72;51.07;96480.72;10494907;28;20021;-23
2022/05/31 22:04:17;;;;;;;1.80;0.90;;;;;;;17.70;51.13;96479.88;10495688;28;20456;-23
2022/05/31 22:09:18;;;;;;;2.87;0.97;;;;;;;17.70;51.31;96482.41;10455288;28;20124;-23
2022/05/31 22:14:21;;;;;;;1.20;1.08;;;;;;;17.69;51.36;96485.78;10494248;28;20032;-23
2022/05/31 22:19:21;;;;;;;2.03;1.30;;;;;;;17.71;51.07;96481.56;10489800;28;20472;-23
2022/05/31 22:25:12;;;;;;;1.70;1.00;;;;;;;17.71;51.39;96489.16;10453873;28;20189;-23
2022/05/31 22:29:43;;;;;;;3.17;1.20;;;;;;;17.72;51.12;96495.91;10453631;28;20554;-23
2022/05/31 22:34:44;;;;;;;2.08;1.30;;;;;;;17.70;51.26;96497.59;10453451;28;20048;-23
2022/05/31 22:39:54;;;;;;;3.70;1.40;;;;;;;17.71;51.27;96495.09;10453319;28;20372;-23
2022/05/31 22:44:57;;;;;;;2.47;1.35;;;;;;;17.70;51.52;96498.47;10453297;28;20025;-24
2022/05/31 22:49:58;;;;;;;2.88;1.30;;;;;;;17.64;51.68;96487.47;10453282;28;20037;-24
2022/05/31 22:54:58;;;;;;;4.88;1.85;;;;;;;17.73;51.43;96497.63;10451554;28;20461;-22
2022/05/31 23:00:33;;;;;;;1.45;1.20;;;;;;;17.70;51.41;96493.41;10452694;28;20068;-23
2022/05/31 23:05:34;;;;;;;3.55;1.70;;;;;;;17.70;51.58;96492.53;10452110;28;20032;-23
2022/05/31 23:10:34;;;;;;;4.70;1.70;;;;;;;17.69;51.45;96499.31;10451968;28;20071;-24
2022/05/31 23:15:41;;;;;;;1.92;1.35;;;;;;;17.53;51.57;96482.44;10452014;28;20120;-24
2022/05/31 23:20:41;;;;;;;3.85;1.48;;;;;;;17.65;51.48;96494.25;10467138;28;20024;-23
2022/05/31 23:25:45;;;;;;;2.30;1.60;;;;;;;17.73;51.53;96497.63;10482434;28;20522;-23
2022/05/31 23:31:05;;;;;;;3.58;1.23;;;;;;;17.58;51.51;96472.31;10451670;28;20033;-23
2022/05/31 23:36:06;;;;;;;2.53;1.35;;;;;;;17.71;51.61;96495.09;10451324;28;20423;-23
2022/05/31 23:41:07;;;;;;;2.88;1.30;;;;;;;17.67;51.42;96492.56;10464376;28;20043;-24
2022/05/31 23:46:07;;;;;;;2.85;1.40;;;;;;;17.67;51.59;96498.44;10492538;28;20427;-23
2022/05/31 23:51:09;;;;;;;2.42;1.17;;;;;;;17.61;51.59;96498.47;10452778;28;20064;-22
2022/05/31 23:56:09;;;;;;;2.13;1.52;;;;;;;17.67;51.83;96502.69;10450229;28;20497;-24
